Time;durP1;ratioP1;P1;durP2;ratioP2;P2;SDS_P1;SDS_P2;PMS_P1;PMS_P2;Temp;Humidity;BMP_temperature;BMP_pressure;BME280_temperature;BME280_humidity;BME280_pressure;Samples;Min_cycle;Max_cycle;Signal;HPM_P1;HPM_P2
2023/03/12 00:02:04;;;;;;;0.68;0.68;;;;;;;10.24;58.30;97066.22;5033206;28;20198;-57
2023/03/12 00:04:31;;;;;;;1.02;0.82;;;;;;;10.51;57.30;97105.16;5035649;28;20730;-57
2023/03/12 00:06:56;;;;;;;0.80;0.80;;;;;;;10.53;56.21;97101.47;5035555;28;20218;-58
2023/03/12 00:09:22;;;;;;;0.75;0.75;;;;;;;10.14;56.46;97049.88;5035419;28;20611;-58
2023/03/12 00:11:48;;;;;;;0.60;0.60;;;;;;;10.14;57.10;97042.94;5035142;28;20175;-58
2023/03/12 00:14:13;;;;;;;0.73;0.73;;;;;;;10.03;56.57;97022.41;5035344;28;20206;-58
2023/03/12 00:16:39;;;;;;;0.68;0.68;;;;;;;10.44;54.87;97110.03;5052753;28;20209;-58
2023/03/12 00:19:04;;;;;;;1.02;0.73;;;;;;;10.21;54.30;97071.66;5053121;28;20201;-58
2023/03/12 00:21:30;;;;;;;2.15;0.60;;;;;;;10.36;54.88;97101.31;5052799;28;20200;-58
2023/03/12 00:23:55;;;;;;;1.30;0.70;;;;;;;9.79;55.72;97021.13;5052721;28;20209;-58
2023/03/12 00:26:21;;;;;;;0.98;0.98;;;;;;;10.02;55.74;97056.91;5052701;28;20198;-58
2023/03/12 00:28:49;;;;;;;0.50;0.50;;;;;;;9.90;56.32;97052.00;5052700;28;20260;-57
2023/03/12 00:31:26;;;;;;;0.77;0.77;;;;;;;10.41;57.01;97135.34;5052638;28;20218;-58
2023/03/12 00:33:53;;;;;;;0.60;0.60;;;;;;;9.80;52.47;97066.69;5052680;28;20174;-58
2023/03/12 00:36:23;;;;;;;0.98;0.90;;;;;;;9.64;53.19;97030.22;5052510;28;20190;-58
2023/03/12 00:38:48;;;;;;;1.23;1.13;;;;;;;9.75;53.68;97076.59;5052450;28;20178;-58
2023/03/12 00:41:13;;;;;;;1.42;0.70;;;;;;;9.84;54.22;97080.94;5052360;28;20178;-58
2023/03/12 00:43:39;;;;;;;1.95;0.80;;;;;;;10.03;55.20;97125.75;5052319;28;20274;-58
2023/03/12 00:46:04;;;;;;;1.35;0.70;;;;;;;9.85;54.31;97064.50;5052313;28;20182;-58
2023/03/12 00:48:30;;;;;;;0.85;0.70;;;;;;;9.66;54.13;97043.81;5036810;28;20581;-58
2023/03/12 00:50:55;;;;;;;0.93;0.93;;;;;;;9.79;55.33;97072.78;5034690;28;20243;-58
2023/03/12 00:53:21;;;;;;;0.95;0.82;;;;;;;9.86;56.81;97087.63;5034678;28;20186;-57
2023/03/12 00:55:46;;;;;;;0.77;0.77;;;;;;;9.98;57.08;97102.06;5034653;28;20190;-57
2023/03/12 00:58:12;;;;;;;0.65;0.65;;;;;;;9.99;57.63;97100.31;5051959;28;20189;-57
2023/03/12 01:00:37;;;;;;;1.48;0.80;;;;;;;9.68;58.37;97053.06;5052039;28;20197;-57
2023/03/12 01:03:02;;;;;;;1.20;1.10;;;;;;;9.98;59.03;97102.06;5051931;28;20762;-57
2023/03/12 01:05:28;;;;;;;0.70;0.70;;;;;;;9.55;59.29;97017.28;5052009;28;20236;-57
2023/03/12 01:07:53;;;;;;;1.67;0.80;;;;;;;9.40;60.27;97021.19;5051926;28;20269;-57
2023/03/12 01:10:19;;;;;;;1.00;1.00;;;;;;;9.93;61.65;97118.91;5051911;28;20583;-57
2023/03/12 01:12:45;;;;;;;0.70;0.70;;;;;;;9.56;62.06;97058.44;5051741;28;20185;-57
2023/03/12 01:15:15;;;;;;;0.80;0.80;;;;;;;9.57;63.67;97073.00;5051271;28;20185;-57
2023/03/12 01:17:41;;;;;;;2.75;1.23;;;;;;;9.70;64.16;97102.00;5051659;28;20217;-57
2023/03/12 01:20:08;;;;;;;1.25;0.93;;;;;;;9.60;64.80;97088.22;5051680;28;20236;-57
2023/03/12 01:22:34;;;;;;;0.88;0.88;;;;;;;9.20;64.12;97040.94;5051728;28;20673;-57
2023/03/12 01:25:00;;;;;;;0.90;0.90;;;;;;;9.59;65.29;97117.59;5051553;28;20244;-57
2023/03/12 01:27:25;;;;;;;1.15;0.85;;;;;;;9.27;66.00;97064.47;5051595;28;20182;-57
2023/03/12 01:29:50;;;;;;;0.93;0.93;;;;;;;9.67;63.63;97122.91;5051535;28;20559;-57
2023/03/12 01:32:16;;;;;;;0.80;0.80;;;;;;;9.13;61.48;97028.69;5051778;28;20186;-58
2023/03/12 01:34:43;;;;;;;1.08;0.75;;;;;;;9.60;58.73;97119.22;5049123;28;20181;-58
2023/03/12 01:37:08;;;;;;;1.55;0.80;;;;;;;9.60;58.61;97119.22;5033865;28;20179;-58
2023/03/12 01:39:34;;;;;;;0.80;0.80;;;;;;;9.69;58.01;97141.69;5033741;28;20235;-58
2023/03/12 01:42:00;;;;;;;2.40;0.80;;;;;;;9.52;57.73;97113.88;5033709;28;20186;-58
2023/03/12 01:44:26;;;;;;;2.83;1.20;;;;;;;9.49;62.65;97121.88;5033758;28;20178;-58
2023/03/12 01:46:51;;;;;;;0.90;0.90;;;;;;;9.11;60.15;97046.88;5033692;28;20178;-58
2023/03/12 01:49:23;;;;;;;1.55;0.80;;;;;;;9.55;59.94;97118.78;5033608;28;20175;-58
2023/03/12 01:52:13;;;;;;;0.77;0.77;;;;;;;9.37;58.41;97128.06;5033686;28;20159;-58
2023/03/12 01:55:11;;;;;;;0.70;0.70;;;;;;;9.54;58.76;97163.63;5033268;28;20201;-58
2023/03/12 01:57:42;;;;;;;0.80;0.80;;;;;;;9.11;61.23;97103.66;5033244;28;20244;-58
2023/03/12 02:00:14;;;;;;;1.88;0.70;;;;;;;9.00;62.76;97116.63;5033494;28;20175;-58
2023/03/12 02:02:43;;;;;;;2.78;0.90;;;;;;;8.78;64.94;97121.06;5033345;28;20194;-58
2023/03/12 02:05:42;;;;;;;2.42;1.25;;;;;;;9.03;66.06;97203.25;5033299;28;20171;-58
2023/03/12 02:08:08;;;;;;;2.15;1.10;;;;;;;8.27;65.15;97108.06;5033299;28;20159;-58
2023/03/12 02:10:34;;;;;;;2.92;1.50;;;;;;;8.74;63.88;97223.63;5033191;28;20186;-57
2023/03/12 02:12:59;;;;;;;3.42;1.52;;;;;;;8.23;63.05;97171.09;5033191;28;20183;-57
2023/03/12 02:15:25;;;;;;;1.92;1.40;;;;;;;8.37;62.60;97219.78;5033074;28;20174;-57
2023/03/12 02:17:52;;;;;;;6.28;1.70;;;;;;;8.30;61.33;97210.91;5033053;28;20170;-57
2023/03/12 02:20:47;;;;;;;4.05;1.65;;;;;;;8.26;60.07;97237.00;5033008;28;20178;-58
2023/03/12 02:23:27;;;;;;;1.40;1.30;;;;;;;8.01;59.29;97222.59;5032759;28;20206;-56
2023/03/12 02:25:55;;;;;;;2.05;1.60;;;;;;;7.43;59.11;97125.03;5032022;28;20200;-56
2023/03/12 02:28:23;;;;;;;1.70;1.60;;;;;;;7.53;59.68;97149.16;5032633;28;20561;-56
2023/03/12 02:30:55;;;;;;;1.55;1.45;;;;;;;7.64;59.69;97167.13;5032832;28;20629;-56
2023/03/12 02:33:20;;;;;;;4.55;1.40;;;;;;;8.00;60.31;97215.00;5070217;28;20810;-56
2023/03/12 02:35:47;;;;;;;4.82;1.40;;;;;;;7.85;59.25;97180.94;5070247;28;20260;-56
2023/03/12 02:38:32;;;;;;;2.78;1.63;;;;;;;8.17;57.75;97238.53;5069999;28;20185;-57
2023/03/12 02:41:02;;;;;;;2.65;1.10;;;;;;;7.82;57.34;97175.22;5070229;28;20701;-56
2023/03/12 02:43:28;;;;;;;3.13;1.65;;;;;;;8.24;56.97;97249.19;5069951;28;20212;-57
2023/03/12 02:45:54;;;;;;;5.10;1.25;;;;;;;7.76;56.61;97155.09;5070145;28;20543;-57
2023/03/12 02:48:20;;;;;;;2.88;1.30;;;;;;;7.74;56.17;97165.50;5070044;28;20192;-57
2023/03/12 02:50:46;;;;;;;1.73;1.50;;;;;;;8.07;56.30;97227.28;5070011;28;20177;-57
2023/03/12 02:53:11;;;;;;;1.80;1.70;;;;;;;7.84;56.84;97189.59;5069909;28;20189;-57
2023/03/12 02:55:37;;;;;;;5.25;1.67;;;;;;;7.70;55.60;97161.50;5069860;28;20204;-56
2023/03/12 02:58:02;;;;;;;1.77;1.50;;;;;;;7.93;54.29;97214.63;5069956;28;20204;-56
2023/03/12 03:00:30;;;;;;;1.75;1.65;;;;;;;7.77;53.67;97193.59;5069956;28;20189;-56
2023/03/12 03:02:58;;;;;;;2.50;1.50;;;;;;;7.99;53.65;97270.03;5069802;28;20220;-57
2023/03/12 03:05:23;;;;;;;5.30;1.80;;;;;;;7.88;52.62;97273.41;5051018;28;20189;-56
2023/03/12 03:07:49;;;;;;;2.30;1.63;;;;;;;7.39;50.98;97193.09;5049833;28;20178;-56
2023/03/12 03:10:16;;;;;;;2.20;1.42;;;;;;;7.52;49.65;97222.09;5032967;28;20708;-56
2023/03/12 03:12:42;;;;;;;2.63;2.00;;;;;;;7.43;49.80;97220.25;5032156;28;20178;-57
2023/03/12 03:15:08;;;;;;;2.70;1.45;;;;;;;7.30;47.84;97209.25;5032184;28;20570;-57
2023/03/12 03:17:34;;;;;;;3.40;1.70;;;;;;;7.70;48.32;97277.34;5032163;28;20179;-56
2023/03/12 03:19:59;;;;;;;1.75;1.63;;;;;;;7.82;48.21;97316.81;5032142;28;20265;-57
2023/03/12 03:22:24;;;;;;;4.55;1.60;;;;;;;7.24;48.08;97225.13;5032023;28;20742;-57
2023/03/12 03:24:52;;;;;;;1.70;1.60;;;;;;;7.27;47.04;97232.59;5032148;28;20179;-57
2023/03/12 03:27:17;;;;;;;4.80;1.60;;;;;;;7.24;47.78;97230.28;5032302;28;20185;-57
2023/03/12 03:29:45;;;;;;;1.92;1.30;;;;;;;7.74;47.83;97314.00;5032103;28;20261;-57
2023/03/12 03:32:10;;;;;;;1.75;1.65;;;;;;;7.87;48.82;97338.72;5031991;28;20180;-57
2023/03/12 03:34:36;;;;;;;3.67;1.30;;;;;;;7.34;46.49;97253.56;5032087;28;20174;-57
2023/03/12 03:37:01;;;;;;;1.52;1.42;;;;;;;7.36;46.47;97267.94;5033517;28;20549;-57
2023/03/12 03:39:28;;;;;;;1.20;1.20;;;;;;;7.10;45.51;97242.50;5036096;28;20555;-57
2023/03/12 03:41:53;;;;;;;1.17;1.17;;;;;;;7.65;45.10;97338.69;5035960;28;20644;-57
2023/03/12 03:44:21;;;;;;;1.30;1.20;;;;;;;7.07;45.28;97243.53;5035998;28;20171;-57
2023/03/12 03:46:46;;;;;;;1.30;1.20;;;;;;;7.34;45.55;97294.72;5035936;28;20667;-57
2023/03/12 03:49:12;;;;;;;1.40;1.40;;;;;;;6.98;45.27;97251.91;5053313;28;20220;-57
2023/03/12 03:51:40;;;;;;;2.00;1.52;;;;;;;7.12;44.95;97264.56;5053341;28;20197;-57
2023/03/12 03:54:06;;;;;;;2.40;1.50;;;;;;;7.16;44.71;97271.16;5053329;28;20674;-57
2023/03/12 03:56:31;;;;;;;1.23;1.23;;;;;;;7.05;44.52;97258.25;5053180;28;20222;-57
2023/03/12 03:58:57;;;;;;;1.38;1.25;;;;;;;7.57;44.15;97348.69;5053173;28;20200;-57
2023/03/12 04:01:23;;;;;;;1.45;1.35;;;;;;;7.36;44.01;97331.44;5053234;28;20209;-57
2023/03/12 04:03:48;;;;;;;1.42;1.33;;;;;;;7.63;45.10;97355.16;5053129;28;20703;-57
2023/03/12 04:06:13;;;;;;;2.25;1.40;;;;;;;7.71;44.09;97374.28;5053122;28;20189;-57
2023/03/12 04:08:39;;;;;;;1.50;1.40;;;;;;;7.51;43.52;97346.56;5053069;28;20189;-57
2023/03/12 04:11:24;;;;;;;2.15;1.95;;;;;;;7.63;43.15;97361.13;5053022;28;20184;-57
2023/03/12 04:13:50;;;;;;;2.28;1.42;;;;;;;7.19;43.34;97288.09;5052992;28;20642;-57
2023/03/12 04:16:16;;;;;;;2.08;1.50;;;;;;;7.47;43.73;97337.44;5052930;28;20261;-57
2023/03/12 04:18:43;;;;;;;4.57;1.75;;;;;;;7.21;42.53;97312.78;5052859;28;20170;-57
2023/03/12 04:21:10;;;;;;;1.80;1.70;;;;;;;7.89;42.18;97408.97;5036690;28;20203;-57
2023/03/12 04:23:36;;;;;;;1.30;1.30;;;;;;;7.74;42.67;97383.53;5035175;28;20202;-57
2023/03/12 04:26:02;;;;;;;2.50;1.48;;;;;;;7.93;40.84;97404.41;5034846;28;20199;-57
2023/03/12 04:28:28;;;;;;;1.30;1.30;;;;;;;7.86;40.93;97406.59;5035193;28;20222;-57
2023/03/12 04:30:59;;;;;;;7.13;1.60;;;;;;;7.90;41.09;97400.28;5012806;28;20191;-57
2023/03/12 04:33:27;;;;;;;1.65;1.33;;;;;;;7.30;40.79;97314.72;5012951;28;20282;-57
2023/03/12 04:35:52;;;;;;;1.23;1.17;;;;;;;7.59;40.81;97352.00;5012858;28;20207;-57
2023/03/12 04:38:20;;;;;;;1.27;1.27;;;;;;;7.94;41.27;97426.66;5012841;28;20770;-57
2023/03/12 04:40:45;;;;;;;2.75;1.60;;;;;;;7.35;41.26;97330.59;5012767;28;20691;-57
2023/03/12 04:43:10;;;;;;;2.15;1.38;;;;;;;7.56;42.76;97388.25;5012642;28;20203;-57
2023/03/12 04:45:38;;;;;;;2.08;1.30;;;;;;;7.39;42.41;97346.66;5012685;28;20195;-57
2023/03/12 04:48:04;;;;;;;1.30;1.27;;;;;;;7.42;42.18;97351.56;5011639;28;20184;-57
2023/03/12 04:50:30;;;;;;;1.33;1.23;;;;;;;8.01;42.17;97451.84;5012606;28;20222;-57
2023/03/12 04:52:55;;;;;;;2.55;1.38;;;;;;;7.67;42.76;97400.31;5012527;28;20206;-57
2023/03/12 04:55:22;;;;;;;2.50;1.50;;;;;;;7.69;42.17;97412.16;5012261;28;20269;-57
2023/03/12 04:57:47;;;;;;;1.58;1.48;;;;;;;7.59;41.83;97392.34;5012498;28;20175;-57
2023/03/12 05:00:13;;;;;;;1.88;1.77;;;;;;;7.55;42.55;97417.50;5012423;28;20182;-57
2023/03/12 05:02:40;;;;;;;3.40;2.22;;;;;;;7.70;41.72;97433.59;5030402;28;20210;-57
2023/03/12 05:05:06;;;;;;;9.07;4.80;;;;;;;7.73;42.23;97435.91;5034430;28;20228;-57
2023/03/12 05:07:32;;;;;;;4.18;2.50;;;;;;;7.78;41.79;97442.41;5034508;28;20276;-57
2023/03/12 05:09:57;;;;;;;2.63;1.38;;;;;;;7.39;41.63;97386.06;5034651;28;20664;-57
2023/03/12 05:12:22;;;;;;;1.42;1.42;;;;;;;7.68;41.80;97432.88;5034326;28;20236;-57
2023/03/12 05:14:48;;;;;;;1.55;1.45;;;;;;;7.89;42.68;97473.34;5034313;28;20185;-57
2023/03/12 05:17:13;;;;;;;1.58;1.48;;;;;;;7.72;42.74;97463.44;5034270;28;20204;-57
2023/03/12 05:19:39;;;;;;;1.10;1.05;;;;;;;7.66;42.13;97451.00;5034186;28;20224;-57
2023/03/12 05:22:04;;;;;;;2.05;1.45;;;;;;;7.42;42.88;97413.34;5034135;28;20249;-57
2023/03/12 05:24:29;;;;;;;2.35;1.65;;;;;;;7.50;42.40;97416.16;5034122;28;20633;-57
2023/03/12 05:26:55;;;;;;;1.98;1.45;;;;;;;7.99;42.23;97502.63;5034102;28;20171;-57
2023/03/12 05:29:20;;;;;;;1.65;1.55;;;;;;;7.80;42.30;97455.16;5034039;28;20270;-57
2023/03/12 05:31:46;;;;;;;1.20;1.10;;;;;;;7.52;41.35;97425.41;5033974;28;20179;-58
2023/03/12 05:34:12;;;;;;;1.27;1.23;;;;;;;7.98;41.91;97513.88;5033960;28;20185;-57
2023/03/12 05:36:37;;;;;;;0.85;0.85;;;;;;;7.91;41.53;97510.09;5033871;28;20644;-58
2023/03/12 05:39:03;;;;;;;1.42;1.33;;;;;;;7.39;41.34;97419.53;5033897;28;20174;-58
2023/03/12 05:41:29;;;;;;;1.02;1.02;;;;;;;7.98;41.54;97525.94;5033820;28;20307;-57
2023/03/12 05:43:56;;;;;;;1.05;1.05;;;;;;;7.90;41.72;97529.06;5033698;28;20199;-58
2023/03/12 05:46:23;;;;;;;1.35;1.23;;;;;;;7.78;41.37;97503.34;5033710;28;20247;-57
2023/03/12 05:48:48;;;;;;;0.95;0.95;;;;;;;7.84;41.16;97498.59;5033690;28;20201;-57
2023/03/12 05:51:14;;;;;;;1.63;1.52;;;;;;;7.72;40.99;97476.31;5033653;28;20640;-58
2023/03/12 05:53:40;;;;;;;1.10;1.00;;;;;;;8.03;40.94;97547.84;5033307;28;20307;-57
2023/03/12 05:56:08;;;;;;;1.00;1.00;;;;;;;7.95;40.97;97529.56;5033617;28;20191;-57
2023/03/12 05:58:34;;;;;;;4.28;1.17;;;;;;;7.63;40.89;97483.88;5033509;28;20190;-58
2023/03/12 06:01:00;;;;;;;1.50;1.27;;;;;;;7.46;40.65;97455.94;5033253;28;20175;-58
2023/03/12 06:03:26;;;;;;;0.90;0.90;;;;;;;7.72;40.96;97488.34;5033308;28;20209;-57
2023/03/12 06:05:55;;;;;;;0.98;0.98;;;;;;;7.74;41.06;97487.31;5032955;28;20201;-58
2023/03/12 06:08:22;;;;;;;1.42;1.30;;;;;;;8.19;40.77;97561.28;5033223;28;20190;-57
2023/03/12 06:10:50;;;;;;;3.17;1.10;;;;;;;7.68;40.83;97467.16;5033023;28;20652;-58
2023/03/12 06:13:15;;;;;;;3.05;1.42;;;;;;;7.88;41.03;97494.88;5033154;28;20202;-58
2023/03/12 06:15:41;;;;;;;1.10;1.00;;;;;;;8.30;40.67;97558.78;5033359;28;20170;-58
2023/03/12 06:18:06;;;;;;;1.10;0.80;;;;;;;8.04;39.74;97512.63;5033086;28;20202;-58
2023/03/12 06:20:32;;;;;;;1.05;0.95;;;;;;;8.22;39.94;97540.44;5044930;28;20207;-58
2023/03/12 06:22:57;;;;;;;1.35;1.25;;;;;;;8.09;40.17;97524.22;5052695;28;20663;-58
2023/03/12 06:25:22;;;;;;;4.97;1.17;;;;;;;7.97;40.48;97514.81;5052895;28;20197;-58
2023/03/12 06:27:48;;;;;;;3.60;1.23;;;;;;;7.88;40.46;97510.34;5052837;28;20643;-57
2023/03/12 06:30:14;;;;;;;0.93;0.93;;;;;;;8.39;40.26;97583.84;5052715;28;20169;-57
2023/03/12 06:32:39;;;;;;;0.75;0.75;;;;;;;8.25;40.53;97565.19;5052736;28;20258;-57
2023/03/12 06:35:05;;;;;;;1.08;1.00;;;;;;;8.07;40.30;97510.63;5052973;28;20329;-57
2023/03/12 06:37:30;;;;;;;1.85;1.20;;;;;;;8.04;39.64;97505.69;5052586;28;20697;-57
2023/03/12 06:39:56;;;;;;;1.33;1.00;;;;;;;8.61;39.45;97611.47;5052575;28;20193;-57
2023/03/12 06:42:21;;;;;;;1.63;1.10;;;;;;;8.72;39.39;97622.66;5052510;28;20243;-57
2023/03/12 06:44:48;;;;;;;1.30;1.20;;;;;;;8.47;39.16;97567.84;5052500;28;20265;-57
2023/03/12 06:47:14;;;;;;;1.08;1.08;;;;;;;8.31;39.09;97539.78;5052244;28;20548;-57
2023/03/12 06:49:39;;;;;;;0.80;0.80;;;;;;;8.70;39.41;97619.38;5052540;28;20182;-57
2023/03/12 06:52:05;;;;;;;2.42;1.45;;;;;;;8.69;39.77;97609.97;5052487;28;20178;-57
2023/03/12 06:54:30;;;;;;;1.17;1.00;;;;;;;8.57;39.42;97569.63;5052121;28;20188;-57
2023/03/12 06:56:58;;;;;;;2.20;1.10;;;;;;;8.31;39.15;97529.47;5052408;28;20166;-58
2023/03/12 06:59:24;;;;;;;1.02;1.02;;;;;;;8.50;39.37;97571.00;5052285;28;20221;-57
2023/03/12 07:01:49;;;;;;;0.80;0.80;;;;;;;8.64;39.27;97588.88;5052228;28;20260;-58
2023/03/12 07:04:15;;;;;;;1.30;1.20;;;;;;;8.73;39.41;97585.59;5052208;28;20323;-58
2023/03/12 07:06:41;;;;;;;2.70;0.98;;;;;;;8.57;38.97;97541.25;5052128;28;20173;-58
2023/03/12 07:09:06;;;;;;;1.08;1.08;;;;;;;9.10;39.13;97602.53;5052043;28;20185;-58
2023/03/12 07:11:32;;;;;;;0.80;0.75;;;;;;;9.42;38.10;97647.41;5051161;28;20303;-58
2023/03/12 07:13:57;;;;;;;1.00;1.00;;;;;;;9.15;38.22;97605.59;5052195;28;20651;-58
2023/03/12 07:16:23;;;;;;;1.35;0.88;;;;;;;9.40;37.66;97626.06;5051908;28;20170;-58
2023/03/12 07:18:48;;;;;;;0.90;0.90;;;;;;;9.57;37.57;97647.06;5051786;28;20235;-58
2023/03/12 07:21:21;;;;;;;1.10;1.10;;;;;;;9.53;37.58;97642.25;5052001;28;20174;-58
2023/03/12 07:23:47;;;;;;;0.98;0.98;;;;;;;9.49;37.47;97648.56;5052123;28;20200;-58
2023/03/12 07:26:13;;;;;;;0.93;0.93;;;;;;;9.58;37.20;97659.03;5052082;28;20202;-58
2023/03/12 07:28:38;;;;;;;0.95;0.93;;;;;;;9.06;37.63;97554.72;5051975;28;20232;-58
2023/03/12 07:31:04;;;;;;;1.00;1.00;;;;;;;9.09;37.55;97575.09;5052094;28;20181;-58
2023/03/12 07:33:29;;;;;;;0.93;0.93;;;;;;;9.40;37.64;97615.72;5052002;28;20643;-58
2023/03/12 07:35:55;;;;;;;1.73;1.63;;;;;;;9.16;37.70;97583.22;5052028;28;20174;-58
2023/03/12 07:38:20;;;;;;;1.20;1.20;;;;;;;9.38;38.23;97609.03;5051920;28;20580;-58
2023/03/12 07:40:56;;;;;;;0.80;0.80;;;;;;;9.86;37.75;97686.97;5051958;28;20166;-58
2023/03/12 07:43:23;;;;;;;1.30;1.30;;;;;;;9.50;37.84;97632.16;5051593;28;20193;-58
2023/03/12 07:45:48;;;;;;;1.52;1.20;;;;;;;9.63;38.52;97650.09;5051675;28;20676;-58
2023/03/12 07:48:14;;;;;;;1.15;1.10;;;;;;;9.68;38.45;97635.88;5051680;28;20185;-58
2023/03/12 07:50:40;;;;;;;1.00;1.00;;;;;;;9.67;39.02;97612.78;5051636;28;20166;-58
2023/03/12 07:53:06;;;;;;;1.02;1.02;;;;;;;9.73;38.69;97607.94;5051631;28;20290;-58
2023/03/12 07:55:33;;;;;;;1.27;1.23;;;;;;;10.10;38.88;97673.97;5051478;28;20676;-58
2023/03/12 07:57:59;;;;;;;0.93;0.93;;;;;;;10.07;38.48;97648.34;5051580;28;20640;-58
2023/03/12 08:00:26;;;;;;;0.98;0.98;;;;;;;9.94;38.79;97596.78;5051561;28;20651;-58
2023/03/12 08:02:52;;;;;;;1.35;1.25;;;;;;;10.67;38.69;97685.66;5051720;28;20200;-58
2023/03/12 08:05:18;;;;;;;1.08;1.08;;;;;;;10.61;37.28;97670.63;5051490;28;20643;-58
2023/03/12 08:07:46;;;;;;;1.25;1.15;;;;;;;10.69;37.61;97688.13;5051465;28;20181;-58
2023/03/12 08:10:11;;;;;;;3.13;1.20;;;;;;;10.19;37.86;97600.84;5048468;28;20189;-58
2023/03/12 08:12:37;;;;;;;2.10;1.73;;;;;;;10.62;37.58;97692.16;5051526;28;20231;-58
2023/03/12 08:15:07;;;;;;;1.60;1.30;;;;;;;10.08;37.58;97609.44;5051330;28;20186;-58
2023/03/12 08:17:33;;;;;;;1.58;1.48;;;;;;;10.53;37.43;97685.97;5051154;28;20166;-58
2023/03/12 08:19:58;;;;;;;1.15;1.15;;;;;;;9.99;37.47;97599.00;5050425;28;20239;-57
2023/03/12 08:22:24;;;;;;;1.65;1.00;;;;;;;10.07;37.21;97588.09;5051549;28;20237;-57
2023/03/12 08:24:49;;;;;;;1.15;1.15;;;;;;;10.41;36.89;97686.09;5054642;28;20269;-57
2023/03/12 08:27:15;;;;;;;1.10;1.10;;;;;;;10.16;36.70;97640.66;5055128;28;20213;-57
2023/03/12 08:29:41;;;;;;;1.45;1.15;;;;;;;9.90;36.65;97590.22;5055105;28;20621;-58
2023/03/12 08:32:07;;;;;;;1.33;1.00;;;;;;;9.49;36.97;97553.03;5054722;28;20177;-58
2023/03/12 08:34:33;;;;;;;2.78;1.10;;;;;;;10.15;36.57;97669.25;5055007;28;20258;-58
2023/03/12 08:36:59;;;;;;;1.30;1.20;;;;;;;10.23;37.17;97669.47;5055002;28;20189;-58
2023/03/12 08:39:25;;;;;;;1.25;1.25;;;;;;;10.35;37.41;97676.25;5054936;28;20177;-58
2023/03/12 08:41:54;;;;;;;1.15;1.15;;;;;;;10.39;37.13;97677.66;5054542;28;20181;-58
2023/03/12 08:44:22;;;;;;;1.67;1.58;;;;;;;9.89;37.04;97583.41;5054783;28;20631;-58
2023/03/12 08:46:48;;;;;;;0.90;0.90;;;;;;;10.39;37.06;97665.53;5054818;28;20687;-58
2023/03/12 08:49:13;;;;;;;1.25;1.17;;;;;;;10.17;37.96;97607.91;5054741;28;20315;-58
2023/03/12 08:51:38;;;;;;;1.27;1.10;;;;;;;10.48;36.40;97654.47;5054670;28;20178;-58
2023/03/12 08:54:04;;;;;;;1.38;1.20;;;;;;;10.27;35.58;97648.41;5054410;28;20261;-58
2023/03/12 08:56:30;;;;;;;1.55;1.00;;;;;;;10.39;35.89;97664.72;5054757;28;20225;-58
2023/03/12 08:58:57;;;;;;;3.17;1.30;;;;;;;10.71;36.10;97696.59;5054849;28;20269;-58
2023/03/12 09:01:23;;;;;;;1.27;1.25;;;;;;;10.33;36.33;97636.78;5054496;28;20178;-58
2023/03/12 09:03:49;;;;;;;1.75;1.65;;;;;;;10.68;37.23;97676.94;5054396;28;20569;-58
2023/03/12 09:06:15;;;;;;;1.40;1.30;;;;;;;10.35;37.67;97593.50;5054331;28;20178;-57
2023/03/12 09:08:42;;;;;;;1.10;1.10;;;;;;;10.38;37.02;97582.91;5054336;28;20267;-57
2023/03/12 09:11:09;;;;;;;1.27;1.23;;;;;;;10.70;36.49;97648.38;5054076;28;20705;-57
2023/03/12 09:13:35;;;;;;;1.45;1.30;;;;;;;10.75;36.96;97648.84;5053917;28;20182;-57
2023/03/12 09:16:01;;;;;;;1.30;1.30;;;;;;;10.87;37.00;97653.00;5053998;28;20181;-57
2023/03/12 09:18:28;;;;;;;1.48;1.38;;;;;;;10.78;36.24;97644.22;5054218;28;20178;-57
2023/03/12 09:20:54;;;;;;;0.90;0.90;;;;;;;10.23;36.03;97586.72;5053910;28;20236;-57
2023/03/12 09:23:19;;;;;;;1.77;1.58;;;;;;;10.57;36.04;97668.44;5053920;28;20198;-57
2023/03/12 09:25:46;;;;;;;1.20;1.10;;;;;;;10.51;36.40;97648.22;5053868;28;20256;-57
2023/03/12 09:28:12;;;;;;;6.35;3.47;;;;;;;10.80;35.62;97724.31;5053557;28;20209;-58
2023/03/12 09:30:37;;;;;;;1.30;1.27;;;;;;;10.62;35.43;97672.28;5053822;28;20635;-58
2023/03/12 09:33:03;;;;;;;1.65;1.55;;;;;;;10.88;35.60;97696.06;5053744;28;20179;-58
2023/03/12 09:35:30;;;;;;;1.63;1.52;;;;;;;10.98;35.55;97702.13;5053423;28;20235;-58
2023/03/12 09:37:56;;;;;;;2.38;1.02;;;;;;;10.68;35.06;97676.16;5053867;28;20253;-58
2023/03/12 09:40:24;;;;;;;1.38;1.20;;;;;;;10.49;35.61;97661.28;5053764;28;20643;-60
2023/03/12 09:42:57;;;;;;;1.83;1.40;;;;;;;10.38;35.50;97648.38;5053467;28;20237;-57
2023/03/12 09:45:26;;;;;;;1.50;1.40;;;;;;;10.52;35.74;97668.78;5053739;28;20200;-59
2023/03/12 09:47:54;;;;;;;1.50;1.40;;;;;;;10.66;34.96;97709.06;5053602;28;20180;-59
2023/03/12 09:50:28;;;;;;;1.63;1.40;;;;;;;10.88;36.02;97725.34;5053647;28;20177;-56
2023/03/12 09:53:00;;;;;;;3.53;2.03;;;;;;;10.58;35.37;97676.06;5052043;28;20207;-56
2023/03/12 09:55:31;;;;;;;0.98;0.98;;;;;;;11.00;34.89;97723.53;5053278;28;20284;-59
2023/03/12 09:57:58;;;;;;;1.88;1.08;;;;;;;10.62;34.66;97645.59;5033591;28;20170;-58
2023/03/12 10:00:29;;;;;;;2.85;1.40;;;;;;;10.71;34.17;97655.19;5033203;28;20191;-57
2023/03/12 10:03:06;;;;;;;1.88;1.40;;;;;;;10.86;34.42;97700.53;5032650;28;20252;-57
2023/03/12 10:05:57;;;;;;;1.95;1.40;;;;;;;11.09;34.02;97727.97;5033307;28;20204;-57
2023/03/12 10:08:48;;;;;;;1.55;1.45;;;;;;;10.99;34.53;97727.06;5033198;28;20194;-58
2023/03/12 10:11:36;;;;;;;4.20;1.80;;;;;;;10.91;33.96;97713.94;5032306;28;20247;-58
2023/03/12 10:14:18;;;;;;;2.40;1.48;;;;;;;10.67;34.59;97658.97;5031124;28;20213;-58
2023/03/12 10:16:50;;;;;;;1.30;1.25;;;;;;;11.24;33.34;97737.06;5011122;28;20245;-58
2023/03/12 10:19:24;;;;;;;2.03;1.63;;;;;;;11.21;33.23;97724.38;5010983;28;20274;-58
2023/03/12 10:22:08;;;;;;;3.15;1.05;;;;;;;11.48;32.31;97746.22;5011123;28;20199;-58
2023/03/12 10:24:57;;;;;;;1.63;1.00;;;;;;;11.52;31.51;97764.94;5010894;28;20712;-58
2023/03/12 10:27:26;;;;;;;2.78;1.15;;;;;;;11.03;31.71;97687.84;5010873;28;20198;-58
2023/03/12 10:29:52;;;;;;;1.17;1.15;;;;;;;11.09;31.51;97681.38;5010627;28;20195;-58
2023/03/12 10:32:28;;;;;;;1.30;1.30;;;;;;;11.61;31.56;97757.25;5010819;28;20246;-58
2023/03/12 10:34:58;;;;;;;1.48;1.05;;;;;;;11.49;32.04;97705.63;5010805;28;20195;-58
2023/03/12 10:37:44;;;;;;;2.80;1.35;;;;;;;11.41;32.88;97674.34;5010680;28;20187;-58
2023/03/12 10:40:15;;;;;;;1.50;1.40;;;;;;;11.16;32.60;97660.00;4990875;28;20196;-58
2023/03/12 10:42:41;;;;;;;4.00;2.22;;;;;;;11.49;32.58;97690.88;4981733;28;20314;-58
2023/03/12 10:45:10;;;;;;;2.95;1.65;;;;;;;11.99;32.11;97752.28;4990656;28;20635;-58
2023/03/12 10:47:37;;;;;;;2.75;2.33;;;;;;;12.10;32.37;97746.19;4990157;28;20192;-58
2023/03/12 10:50:17;;;;;;;1.65;1.52;;;;;;;12.16;32.17;97750.84;4990870;28;20301;-58
2023/03/12 10:52:45;;;;;;;4.15;2.92;;;;;;;11.93;32.55;97680.22;4990386;28;20195;-58
2023/03/12 10:55:28;;;;;;;1.45;1.35;;;;;;;12.09;32.54;97669.34;4990203;28;20675;-58
2023/03/12 10:57:54;;;;;;;1.38;1.27;;;;;;;12.48;32.27;97734.16;4990824;28;20203;-58
2023/03/12 11:00:23;;;;;;;1.63;1.52;;;;;;;12.44;32.41;97706.03;4990711;28;20187;-58
2023/03/12 11:03:19;;;;;;;2.83;2.30;;;;;;;12.86;32.66;97751.56;4989295;28;20223;-58
2023/03/12 11:05:50;;;;;;;1.48;1.38;;;;;;;12.55;32.69;97711.09;4952059;28;20201;-58
2023/03/12 11:08:30;;;;;;;1.42;1.30;;;;;;;12.77;31.77;97750.59;4951916;29;20750;-58
2023/03/12 11:10:58;;;;;;;1.95;1.38;;;;;;;12.78;32.55;97754.03;4958648;28;20218;-57
2023/03/12 11:13:29;;;;;;;2.28;2.13;;;;;;;12.78;32.84;97749.63;4985865;28;20218;-57
2023/03/12 11:15:58;;;;;;;2.42;1.70;;;;;;;12.23;32.31;97661.19;5010296;28;20198;-58
2023/03/12 11:18:31;;;;;;;1.83;1.73;;;;;;;12.47;32.97;97690.16;5010147;28;20241;-58
2023/03/12 11:21:08;;;;;;;1.85;1.70;;;;;;;12.95;32.83;97749.00;5010208;28;20202;-58
2023/03/12 11:23:57;;;;;;;3.03;1.73;;;;;;;12.52;32.76;97662.06;5010108;28;20745;-58
2023/03/12 11:26:41;;;;;;;1.58;1.48;;;;;;;13.14;33.33;97753.41;4987605;28;20654;-58
2023/03/12 11:29:21;;;;;;;1.55;1.45;;;;;;;13.12;34.11;97737.16;4990460;28;20280;-58
2023/03/12 11:32:01;;;;;;;1.85;1.75;;;;;;;13.35;34.21;97735.91;4990469;28;20701;-58
2023/03/12 11:34:30;;;;;;;2.35;2.03;;;;;;;12.99;34.28;97656.06;4990454;28;20176;-58
2023/03/12 11:37:19;;;;;;;3.33;1.60;;;;;;;13.52;33.43;97748.16;5012250;28;20232;-58
2023/03/12 11:39:47;;;;;;;1.65;1.55;;;;;;;13.57;31.84;97741.59;5029961;28;20233;-58
2023/03/12 11:42:40;;;;;;;1.38;1.27;;;;;;;13.61;31.21;97744.75;5029573;28;20193;-58
2023/03/12 11:45:27;;;;;;;2.30;1.50;;;;;;;13.84;31.60;97739.09;5029667;28;20297;-58